sensor_id;sensor_type;location;lat;lon;timestamp;P1;durP1;ratioP1;P2;durP2;ratioP2
2305;SDS011;1161;51.922;8.896;2023-01-24T00:01:51;23.67;;;8.67;;
2305;SDS011;1161;51.922;8.896;2023-01-24T00:04:18;23.07;;;11.40;;
2305;SDS011;1161;51.922;8.896;2023-01-24T00:06:45;9.75;;;7.20;;
2305;SDS011;1161;51.922;8.896;2023-01-24T00:09:12;19.40;;;9.70;;
2305;SDS011;1161;51.922;8.896;2023-01-24T00:11:38;22.48;;;9.50;;
2305;SDS011;1161;51.922;8.896;2023-01-24T00:14:05;19.10;;;8.97;;
2305;SDS011;1161;51.922;8.896;2023-01-24T00:16:31;19.70;;;10.20;;
2305;SDS011;1161;51.922;8.896;2023-01-24T00:18:58;29.73;;;11.70;;
2305;SDS011;1161;51.922;8.896;2023-01-24T00:21:26;17.27;;;9.20;;
2305;SDS011;1161;51.922;8.896;2023-01-24T00:23:53;12.10;;;8.00;;
2305;SDS011;1161;51.922;8.896;2023-01-24T00:26:21;16.27;;;10.83;;
2305;SDS011;1161;51.922;8.896;2023-01-24T00:28:48;20.03;;;9.80;;
2305;SDS011;1161;51.922;8.896;2023-01-24T00:31:16;17.50;;;8.97;;
2305;SDS011;1161;51.922;8.896;2023-01-24T00:33:42;24.80;;;11.70;;
2305;SDS011;1161;51.922;8.896;2023-01-24T00:36:11;19.77;;;9.07;;
2305;SDS011;1161;51.922;8.896;2023-01-24T00:38:39;20.25;;;10.02;;
2305;SDS011;1161;51.922;8.896;2023-01-24T00:41:05;17.40;;;9.40;;
2305;SDS011;1161;51.922;8.896;2023-01-24T00:43:32;20.70;;;10.53;;
2305;SDS011;1161;51.922;8.896;2023-01-24T00:45:58;12.98;;;9.00;;
2305;SDS011;1161;51.922;8.896;2023-01-24T00:48:25;15.83;;;9.20;;
2305;SDS011;1161;51.922;8.896;2023-01-24T00:50:52;24.70;;;10.17;;
2305;SDS011;1161;51.922;8.896;2023-01-24T00:53:18;21.93;;;11.77;;
2305;SDS011;1161;51.922;8.896;2023-01-24T00:55:47;29.20;;;11.53;;
2305;SDS011;1161;51.922;8.896;2023-01-24T00:58:15;18.53;;;8.90;;
2305;SDS011;1161;51.922;8.896;2023-01-24T01:00:42;13.85;;;8.23;;
2305;SDS011;1161;51.922;8.896;2023-01-24T01:03:10;19.33;;;8.88;;
2305;SDS011;1161;51.922;8.896;2023-01-24T01:05:38;16.73;;;7.13;;
2305;SDS011;1161;51.922;8.896;2023-01-24T01:08:05;17.50;;;8.80;;
2305;SDS011;1161;51.922;8.896;2023-01-24T01:10:31;24.48;;;10.50;;
2305;SDS011;1161;51.922;8.896;2023-01-24T01:12:59;16.80;;;8.55;;
2305;SDS011;1161;51.922;8.896;2023-01-24T01:15:26;17.00;;;8.95;;
2305;SDS011;1161;51.922;8.896;2023-01-24T01:17:53;23.37;;;10.30;;
2305;SDS011;1161;51.922;8.896;2023-01-24T01:20:19;23.10;;;10.93;;
2305;SDS011;1161;51.922;8.896;2023-01-24T01:22:46;28.95;;;10.35;;
2305;SDS011;1161;51.922;8.896;2023-01-24T01:25:12;23.73;;;10.57;;
2305;SDS011;1161;51.922;8.896;2023-01-24T01:27:39;15.40;;;7.70;;
2305;SDS011;1161;51.922;8.896;2023-01-24T01:30:08;29.83;;;11.57;;
2305;SDS011;1161;51.922;8.896;2023-01-24T01:32:35;12.65;;;7.18;;
2305;SDS011;1161;51.922;8.896;2023-01-24T01:35:02;16.52;;;9.45;;
2305;SDS011;1161;51.922;8.896;2023-01-24T01:37:29;12.75;;;7.07;;
2305;SDS011;1161;51.922;8.896;2023-01-24T01:39:56;22.00;;;9.13;;
2305;SDS011;1161;51.922;8.896;2023-01-24T01:42:22;15.90;;;8.00;;
2305;SDS011;1161;51.922;8.896;2023-01-24T01:44:49;25.43;;;8.90;;
2305;SDS011;1161;51.922;8.896;2023-01-24T01:47:19;21.00;;;9.43;;
2305;SDS011;1161;51.922;8.896;2023-01-24T01:49:51;12.30;;;8.00;;
2305;SDS011;1161;51.922;8.896;2023-01-24T01:52:22;20.08;;;9.40;;
2305;SDS011;1161;51.922;8.896;2023-01-24T01:54:51;31.57;;;12.03;;
2305;SDS011;1161;51.922;8.896;2023-01-24T01:57:20;20.23;;;10.07;;
2305;SDS011;1161;51.922;8.896;2023-01-24T01:59:49;26.67;;;11.43;;
2305;SDS011;1161;51.922;8.896;2023-01-24T02:02:18;24.90;;;9.60;;
2305;SDS011;1161;51.922;8.896;2023-01-24T02:04:46;16.92;;;8.52;;
2305;SDS011;1161;51.922;8.896;2023-01-24T02:07:16;16.38;;;8.93;;
2305;SDS011;1161;51.922;8.896;2023-01-24T02:09:47;20.95;;;8.60;;
2305;SDS011;1161;51.922;8.896;2023-01-24T02:12:17;20.83;;;10.30;;
2305;SDS011;1161;51.922;8.896;2023-01-24T02:14:46;13.80;;;8.65;;
2305;SDS011;1161;51.922;8.896;2023-01-24T02:17:33;15.55;;;10.13;;
2305;SDS011;1161;51.922;8.896;2023-01-24T02:20:02;28.98;;;11.82;;
2305;SDS011;1161;51.922;8.896;2023-01-24T02:22:36;13.70;;;7.97;;
2305;SDS011;1161;51.922;8.896;2023-01-24T02:25:09;21.35;;;9.65;;
2305;SDS011;1161;51.922;8.896;2023-01-24T02:27:42;30.90;;;12.80;;
2305;SDS011;1161;51.922;8.896;2023-01-24T02:30:09;26.25;;;12.40;;
2305;SDS011;1161;51.922;8.896;2023-01-24T02:32:38;31.40;;;11.35;;
2305;SDS011;1161;51.922;8.896;2023-01-24T02:35:06;16.08;;;8.25;;
2305;SDS011;1161;51.922;8.896;2023-01-24T02:37:33;15.25;;;9.25;;
2305;SDS011;1161;51.922;8.896;2023-01-24T02:40:02;17.85;;;8.88;;
2305;SDS011;1161;51.922;8.896;2023-01-24T02:42:32;11.32;;;8.85;;
2305;SDS011;1161;51.922;8.896;2023-01-24T02:45:04;23.95;;;11.55;;
2305;SDS011;1161;51.922;8.896;2023-01-24T02:47:34;24.67;;;10.30;;
2305;SDS011;1161;51.922;8.896;2023-01-24T02:50:03;19.90;;;8.43;;
2305;SDS011;1161;51.922;8.896;2023-01-24T02:52:32;15.80;;;9.35;;
2305;SDS011;1161;51.922;8.896;2023-01-24T02:55:16;15.60;;;8.80;;
2305;SDS011;1161;51.922;8.896;2023-01-24T02:57:43;19.00;;;7.43;;
2305;SDS011;1161;51.922;8.896;2023-01-24T03:00:28;19.55;;;9.70;;
2305;SDS011;1161;51.922;8.896;2023-01-24T03:02:55;12.63;;;7.75;;
2305;SDS011;1161;51.922;8.896;2023-01-24T03:05:22;13.35;;;7.60;;
2305;SDS011;1161;51.922;8.896;2023-01-24T03:07:48;13.40;;;7.20;;
2305;SDS011;1161;51.922;8.896;2023-01-24T03:10:16;13.35;;;7.65;;
2305;SDS011;1161;51.922;8.896;2023-01-24T03:12:43;15.00;;;7.95;;
2305;SDS011;1161;51.922;8.896;2023-01-24T03:15:29;17.33;;;9.18;;
2305;SDS011;1161;51.922;8.896;2023-01-24T03:18:13;17.90;;;9.18;;
2305;SDS011;1161;51.922;8.896;2023-01-24T03:20:58;9.98;;;6.97;;
2305;SDS011;1161;51.922;8.896;2023-01-24T03:23:42;17.55;;;8.32;;
2305;SDS011;1161;51.922;8.896;2023-01-24T03:26:26;13.23;;;7.88;;
2305;SDS011;1161;51.922;8.896;2023-01-24T03:29:11;12.20;;;7.40;;
2305;SDS011;1161;51.922;8.896;2023-01-24T03:31:56;10.77;;;6.70;;
2305;SDS011;1161;51.922;8.896;2023-01-24T03:34:41;12.95;;;8.70;;
2305;SDS011;1161;51.922;8.896;2023-01-24T03:37:14;12.10;;;6.97;;
2305;SDS011;1161;51.922;8.896;2023-01-24T03:39:42;12.68;;;7.88;;
2305;SDS011;1161;51.922;8.896;2023-01-24T03:42:24;12.23;;;7.75;;
2305;SDS011;1161;51.922;8.896;2023-01-24T03:44:52;23.30;;;9.15;;
2305;SDS011;1161;51.922;8.896;2023-01-24T03:47:20;21.67;;;8.73;;
2305;SDS011;1161;51.922;8.896;2023-01-24T03:49:47;14.35;;;9.25;;
2305;SDS011;1161;51.922;8.896;2023-01-24T03:52:32;14.43;;;7.82;;
2305;SDS011;1161;51.922;8.896;2023-01-24T03:54:59;15.35;;;7.97;;
2305;SDS011;1161;51.922;8.896;2023-01-24T03:57:27;8.70;;;6.47;;
2305;SDS011;1161;51.922;8.896;2023-01-24T03:59:54;16.47;;;8.00;;
2305;SDS011;1161;51.922;8.896;2023-01-24T04:02:22;13.45;;;8.23;;
2305;SDS011;1161;51.922;8.896;2023-01-24T04:04:49;15.68;;;8.18;;
2305;SDS011;1161;51.922;8.896;2023-01-24T04:07:34;17.35;;;7.68;;
2305;SDS011;1161;51.922;8.896;2023-01-24T04:10:02;13.07;;;7.68;;
2305;SDS011;1161;51.922;8.896;2023-01-24T04:12:29;21.33;;;7.97;;
2305;SDS011;1161;51.922;8.896;2023-01-24T04:14:57;14.90;;;7.50;;
2305;SDS011;1161;51.922;8.896;2023-01-24T04:17:25;13.75;;;8.50;;
2305;SDS011;1161;51.922;8.896;2023-01-24T04:19:52;20.90;;;9.13;;
2305;SDS011;1161;51.922;8.896;2023-01-24T04:22:39;15.57;;;7.53;;
2305;SDS011;1161;51.922;8.896;2023-01-24T04:25:08;15.48;;;7.90;;
2305;SDS011;1161;51.922;8.896;2023-01-24T04:27:37;9.00;;;6.72;;
2305;SDS011;1161;51.922;8.896;2023-01-24T04:30:04;15.13;;;8.38;;
2305;SDS011;1161;51.922;8.896;2023-01-24T04:32:35;14.63;;;7.78;;
2305;SDS011;1161;51.922;8.896;2023-01-24T04:35:04;15.68;;;9.80;;
2305;SDS011;1161;51.922;8.896;2023-01-24T04:37:38;17.97;;;7.87;;
2305;SDS011;1161;51.922;8.896;2023-01-24T04:40:05;15.05;;;7.55;;
2305;SDS011;1161;51.922;8.896;2023-01-24T04:42:34;13.30;;;8.20;;
2305;SDS011;1161;51.922;8.896;2023-01-24T04:45:03;14.43;;;7.17;;
2305;SDS011;1161;51.922;8.896;2023-01-24T04:47:34;13.23;;;8.27;;
2305;SDS011;1161;51.922;8.896;2023-01-24T04:50:01;10.88;;;6.95;;
2305;SDS011;1161;51.922;8.896;2023-01-24T04:52:33;12.23;;;6.75;;
2305;SDS011;1161;51.922;8.896;2023-01-24T04:55:01;15.48;;;7.28;;
2305;SDS011;1161;51.922;8.896;2023-01-24T04:57:28;12.23;;;6.65;;
2305;SDS011;1161;51.922;8.896;2023-01-24T04:59:56;13.18;;;7.25;;
2305;SDS011;1161;51.922;8.896;2023-01-24T05:02:23;12.05;;;5.78;;
2305;SDS011;1161;51.922;8.896;2023-01-24T05:04:51;13.25;;;7.75;;
2305;SDS011;1161;51.922;8.896;2023-01-24T05:07:21;11.02;;;6.80;;
2305;SDS011;1161;51.922;8.896;2023-01-24T05:09:48;12.37;;;7.77;;
2305;SDS011;1161;51.922;8.896;2023-01-24T05:12:15;14.52;;;7.90;;
2305;SDS011;1161;51.922;8.896;2023-01-24T05:14:42;13.70;;;6.53;;
2305;SDS011;1161;51.922;8.896;2023-01-24T05:17:10;15.88;;;8.50;;
2305;SDS011;1161;51.922;8.896;2023-01-24T05:19:37;13.43;;;7.40;;
2305;SDS011;1161;51.922;8.896;2023-01-24T05:22:07;15.82;;;7.32;;
2305;SDS011;1161;51.922;8.896;2023-01-24T05:24:34;14.73;;;8.00;;
2305;SDS011;1161;51.922;8.896;2023-01-24T05:27:04;16.52;;;8.23;;
2305;SDS011;1161;51.922;8.896;2023-01-24T05:29:33;17.48;;;6.75;;
2305;SDS011;1161;51.922;8.896;2023-01-24T05:32:04;12.73;;;6.77;;
2305;SDS011;1161;51.922;8.896;2023-01-24T05:34:32;12.80;;;7.05;;
2305;SDS011;1161;51.922;8.896;2023-01-24T05:37:02;18.45;;;7.75;;
2305;SDS011;1161;51.922;8.896;2023-01-24T05:39:32;23.02;;;9.85;;
2305;SDS011;1161;51.922;8.896;2023-01-24T05:41:58;17.63;;;8.17;;
2305;SDS011;1161;51.922;8.896;2023-01-24T05:44:27;13.40;;;8.23;;
2305;SDS011;1161;51.922;8.896;2023-01-24T05:46:54;13.77;;;8.00;;
2305;SDS011;1161;51.922;8.896;2023-01-24T05:49:22;22.83;;;9.57;;
2305;SDS011;1161;51.922;8.896;2023-01-24T05:51:49;17.00;;;8.75;;
2305;SDS011;1161;51.922;8.896;2023-01-24T05:54:16;9.97;;;8.50;;
2305;SDS011;1161;51.922;8.896;2023-01-24T05:56:45;17.23;;;9.00;;
2305;SDS011;1161;51.922;8.896;2023-01-24T05:59:12;11.70;;;7.10;;
2305;SDS011;1161;51.922;8.896;2023-01-24T06:01:40;16.30;;;8.02;;
2305;SDS011;1161;51.922;8.896;2023-01-24T06:04:06;16.77;;;9.25;;
2305;SDS011;1161;51.922;8.896;2023-01-24T06:06:34;18.77;;;9.57;;
2305;SDS011;1161;51.922;8.896;2023-01-24T06:09:02;18.93;;;9.37;;
2305;SDS011;1161;51.922;8.896;2023-01-24T06:11:29;22.20;;;9.30;;
2305;SDS011;1161;51.922;8.896;2023-01-24T06:14:00;14.93;;;8.40;;
2305;SDS011;1161;51.922;8.896;2023-01-24T06:16:27;11.03;;;7.57;;
2305;SDS011;1161;51.922;8.896;2023-01-24T06:18:56;19.00;;;8.38;;
2305;SDS011;1161;51.922;8.896;2023-01-24T06:21:29;12.43;;;6.95;;
2305;SDS011;1161;51.922;8.896;2023-01-24T06:24:03;16.02;;;9.57;;
2305;SDS011;1161;51.922;8.896;2023-01-24T06:26:32;16.50;;;8.30;;
2305;SDS011;1161;51.922;8.896;2023-01-24T06:29:02;14.40;;;8.00;;
2305;SDS011;1161;51.922;8.896;2023-01-24T06:31:35;17.00;;;9.37;;
2305;SDS011;1161;51.922;8.896;2023-01-24T06:34:16;18.38;;;9.13;;
2305;SDS011;1161;51.922;8.896;2023-01-24T06:36:53;14.10;;;8.10;;
2305;SDS011;1161;51.922;8.896;2023-01-24T06:39:26;17.90;;;9.07;;
2305;SDS011;1161;51.922;8.896;2023-01-24T06:41:54;16.70;;;8.55;;
2305;SDS011;1161;51.922;8.896;2023-01-24T06:44:24;18.05;;;8.52;;
2305;SDS011;1161;51.922;8.896;2023-01-24T06:46:53;11.27;;;7.50;;
2305;SDS011;1161;51.922;8.896;2023-01-24T06:49:19;11.50;;;7.03;;
2305;SDS011;1161;51.922;8.896;2023-01-24T06:51:48;16.55;;;8.98;;
2305;SDS011;1161;51.922;8.896;2023-01-24T06:54:15;17.38;;;8.52;;
2305;SDS011;1161;51.922;8.896;2023-01-24T06:56:44;18.70;;;9.43;;
2305;SDS011;1161;51.922;8.896;2023-01-24T06:59:11;16.30;;;7.65;;
2305;SDS011;1161;51.922;8.896;2023-01-24T07:01:39;14.03;;;8.20;;
2305;SDS011;1161;51.922;8.896;2023-01-24T07:04:07;14.25;;;8.00;;
2305;SDS011;1161;51.922;8.896;2023-01-24T07:06:35;18.85;;;8.32;;
2305;SDS011;1161;51.922;8.896;2023-01-24T07:09:03;17.00;;;9.27;;
2305;SDS011;1161;51.922;8.896;2023-01-24T07:11:32;16.73;;;9.30;;
2305;SDS011;1161;51.922;8.896;2023-01-24T07:14:00;21.35;;;11.07;;
2305;SDS011;1161;51.922;8.896;2023-01-24T07:16:27;13.10;;;9.10;;
2305;SDS011;1161;51.922;8.896;2023-01-24T07:18:56;31.95;;;11.43;;
2305;SDS011;1161;51.922;8.896;2023-01-24T07:21:24;12.77;;;8.68;;
2305;SDS011;1161;51.922;8.896;2023-01-24T07:23:54;14.23;;;8.93;;
2305;SDS011;1161;51.922;8.896;2023-01-24T07:26:25;13.07;;;7.47;;
2305;SDS011;1161;51.922;8.896;2023-01-24T07:28:52;10.77;;;6.57;;
2305;SDS011;1161;51.922;8.896;2023-01-24T07:31:20;22.60;;;8.73;;
2305;SDS011;1161;51.922;8.896;2023-01-24T07:33:47;17.65;;;7.20;;
2305;SDS011;1161;51.922;8.896;2023-01-24T07:36:16;11.15;;;7.40;;
2305;SDS011;1161;51.922;8.896;2023-01-24T07:38:43;14.45;;;7.85;;
2305;SDS011;1161;51.922;8.896;2023-01-24T07:41:10;9.98;;;6.00;;
2305;SDS011;1161;51.922;8.896;2023-01-24T07:43:38;14.63;;;7.47;;
2305;SDS011;1161;51.922;8.896;2023-01-24T07:46:05;11.98;;;6.55;;
2305;SDS011;1161;51.922;8.896;2023-01-24T07:48:32;14.25;;;8.38;;
2305;SDS011;1161;51.922;8.896;2023-01-24T07:51:00;21.05;;;8.45;;
2305;SDS011;1161;51.922;8.896;2023-01-24T07:53:28;8.77;;;7.40;;
2305;SDS011;1161;51.922;8.896;2023-01-24T07:55:58;25.42;;;10.25;;
2305;SDS011;1161;51.922;8.896;2023-01-24T07:58:25;18.90;;;8.87;;
2305;SDS011;1161;51.922;8.896;2023-01-24T08:00:52;18.20;;;7.95;;
2305;SDS011;1161;51.922;8.896;2023-01-24T08:03:18;10.52;;;7.13;;
2305;SDS011;1161;51.922;8.896;2023-01-24T08:05:46;10.77;;;6.63;;
2305;SDS011;1161;51.922;8.896;2023-01-24T08:08:13;12.80;;;7.10;;
2305;SDS011;1161;51.922;8.896;2023-01-24T08:10:41;16.70;;;6.88;;
2305;SDS011;1161;51.922;8.896;2023-01-24T08:13:07;20.67;;;7.03;;
2305;SDS011;1161;51.922;8.896;2023-01-24T08:15:36;8.93;;;6.00;;
2305;SDS011;1161;51.922;8.896;2023-01-24T08:18:03;14.77;;;7.28;;
2305;SDS011;1161;51.922;8.896;2023-01-24T08:20:30;18.42;;;7.70;;
2305;SDS011;1161;51.922;8.896;2023-01-24T08:22:56;12.70;;;7.90;;
2305;SDS011;1161;51.922;8.896;2023-01-24T08:25:23;11.17;;;5.67;;
2305;SDS011;1161;51.922;8.896;2023-01-24T08:27:52;14.15;;;7.22;;
2305;SDS011;1161;51.922;8.896;2023-01-24T08:30:19;6.93;;;6.05;;
2305;SDS011;1161;51.922;8.896;2023-01-24T08:32:46;15.70;;;6.60;;
2305;SDS011;1161;51.922;8.896;2023-01-24T08:35:13;12.30;;;6.65;;
2305;SDS011;1161;51.922;8.896;2023-01-24T08:37:40;11.57;;;7.30;;
2305;SDS011;1161;51.922;8.896;2023-01-24T08:40:07;11.73;;;6.78;;
2305;SDS011;1161;51.922;8.896;2023-01-24T08:42:36;12.23;;;6.85;;
2305;SDS011;1161;51.922;8.896;2023-01-24T08:45:05;9.88;;;7.32;;
2305;SDS011;1161;51.922;8.896;2023-01-24T08:47:32;12.00;;;5.97;;
2305;SDS011;1161;51.922;8.896;2023-01-24T08:49:59;8.93;;;5.30;;
2305;SDS011;1161;51.922;8.896;2023-01-24T08:52:25;11.20;;;6.55;;
2305;SDS011;1161;51.922;8.896;2023-01-24T08:54:52;13.30;;;6.70;;
2305;SDS011;1161;51.922;8.896;2023-01-24T08:57:19;6.40;;;5.72;;
2305;SDS011;1161;51.922;8.896;2023-01-24T08:59:45;6.20;;;5.60;;
2305;SDS011;1161;51.922;8.896;2023-01-24T09:02:14;8.50;;;6.57;;
2305;SDS011;1161;51.922;8.896;2023-01-24T09:04:42;11.55;;;6.65;;
2305;SDS011;1161;51.922;8.896;2023-01-24T09:07:08;7.10;;;5.32;;
2305;SDS011;1161;51.922;8.896;2023-01-24T09:09:36;10.43;;;6.50;;
2305;SDS011;1161;51.922;8.896;2023-01-24T09:12:03;13.50;;;6.88;;
2305;SDS011;1161;51.922;8.896;2023-01-24T09:14:30;10.90;;;6.60;;
2305;SDS011;1161;51.922;8.896;2023-01-24T09:17:04;10.50;;;6.85;;
2305;SDS011;1161;51.922;8.896;2023-01-24T09:19:31;11.73;;;6.72;;
2305;SDS011;1161;51.922;8.896;2023-01-24T09:21:58;14.43;;;7.60;;
2305;SDS011;1161;51.922;8.896;2023-01-24T09:24:25;15.32;;;8.32;;
2305;SDS011;1161;51.922;8.896;2023-01-24T09:26:52;11.68;;;7.43;;
2305;SDS011;1161;51.922;8.896;2023-01-24T09:29:18;14.88;;;8.43;;
2305;SDS011;1161;51.922;8.896;2023-01-24T09:31:46;13.70;;;7.50;;
2305;SDS011;1161;51.922;8.896;2023-01-24T09:34:12;16.35;;;8.18;;
2305;SDS011;1161;51.922;8.896;2023-01-24T09:36:40;13.45;;;8.63;;
2305;SDS011;1161;51.922;8.896;2023-01-24T09:39:07;12.40;;;7.47;;
2305;SDS011;1161;51.922;8.896;2023-01-24T09:41:37;8.57;;;6.15;;
2305;SDS011;1161;51.922;8.896;2023-01-24T09:44:10;8.85;;;6.30;;
2305;SDS011;1161;51.922;8.896;2023-01-24T09:46:42;13.73;;;6.65;;
2305;SDS011;1161;51.922;8.896;2023-01-24T09:49:12;10.98;;;7.40;;
2305;SDS011;1161;51.922;8.896;2023-01-24T09:51:42;11.45;;;7.00;;
2305;SDS011;1161;51.922;8.896;2023-01-24T09:54:13;9.30;;;6.85;;
2305;SDS011;1161;51.922;8.896;2023-01-24T09:56:43;14.38;;;6.45;;
2305;SDS011;1161;51.922;8.896;2023-01-24T09:59:13;11.13;;;6.05;;
2305;SDS011;1161;51.922;8.896;2023-01-24T10:01:46;12.27;;;6.03;;
2305;SDS011;1161;51.922;8.896;2023-01-24T10:04:13;9.00;;;6.10;;
2305;SDS011;1161;51.922;8.896;2023-01-24T10:06:47;6.60;;;5.57;;
2305;SDS011;1161;51.922;8.896;2023-01-24T10:09:26;14.70;;;5.53;;
2305;SDS011;1161;51.922;8.896;2023-01-24T10:12:01;9.87;;;6.53;;
2305;SDS011;1161;51.922;8.896;2023-01-24T10:14:36;10.63;;;5.90;;
2305;SDS011;1161;51.922;8.896;2023-01-24T10:20:06;6.82;;;5.22;;
2305;SDS011;1161;51.922;8.896;2023-01-24T10:25:27;7.88;;;5.30;;
2305;SDS011;1161;51.922;8.896;2023-01-24T10:27:56;6.80;;;5.90;;
2305;SDS011;1161;51.922;8.896;2023-01-24T10:30:28;8.53;;;5.20;;
2305;SDS011;1161;51.922;8.896;2023-01-24T10:32:58;10.02;;;6.00;;
2305;SDS011;1161;51.922;8.896;2023-01-24T10:35:28;8.55;;;5.50;;
2305;SDS011;1161;51.922;8.896;2023-01-24T10:37:57;13.13;;;6.43;;
2305;SDS011;1161;51.922;8.896;2023-01-24T10:40:26;9.68;;;6.50;;
2305;SDS011;1161;51.922;8.896;2023-01-24T10:42:53;7.20;;;5.03;;
2305;SDS011;1161;51.922;8.896;2023-01-24T10:45:35;10.93;;;6.97;;
2305;SDS011;1161;51.922;8.896;2023-01-24T10:48:09;12.80;;;6.50;;
2305;SDS011;1161;51.922;8.896;2023-01-24T10:50:40;7.97;;;4.83;;
2305;SDS011;1161;51.922;8.896;2023-01-24T10:53:13;8.02;;;5.32;;
2305;SDS011;1161;51.922;8.896;2023-01-24T10:55:41;10.90;;;6.20;;
2305;SDS011;1161;51.922;8.896;2023-01-24T10:58:19;15.43;;;6.33;;
2305;SDS011;1161;51.922;8.896;2023-01-24T11:00:48;8.93;;;5.47;;
2305;SDS011;1161;51.922;8.896;2023-01-24T11:03:23;8.18;;;5.05;;
2305;SDS011;1161;51.922;8.896;2023-01-24T11:05:51;12.17;;;5.87;;
2305;SDS011;1161;51.922;8.896;2023-01-24T11:08:21;12.70;;;6.07;;
2305;SDS011;1161;51.922;8.896;2023-01-24T11:10:52;13.03;;;6.47;;
2305;SDS011;1161;51.922;8.896;2023-01-24T11:13:27;10.47;;;6.80;;
2305;SDS011;1161;51.922;8.896;2023-01-24T11:16:00;15.93;;;7.10;;
2305;SDS011;1161;51.922;8.896;2023-01-24T11:18:28;12.40;;;5.90;;
2305;SDS011;1161;51.922;8.896;2023-01-24T11:21:10;10.70;;;6.40;;
2305;SDS011;1161;51.922;8.896;2023-01-24T11:23:39;7.60;;;6.30;;
2305;SDS011;1161;51.922;8.896;2023-01-24T11:26:19;10.20;;;5.07;;
2305;SDS011;1161;51.922;8.896;2023-01-24T11:28:55;9.17;;;6.30;;
2305;SDS011;1161;51.922;8.896;2023-01-24T11:31:25;8.97;;;6.27;;
2305;SDS011;1161;51.922;8.896;2023-01-24T11:33:59;9.87;;;6.23;;
2305;SDS011;1161;51.922;8.896;2023-01-24T11:36:37;9.57;;;6.30;;
2305;SDS011;1161;51.922;8.896;2023-01-24T11:39:10;10.97;;;7.33;;
2305;SDS011;1161;51.922;8.896;2023-01-24T11:41:43;11.23;;;6.27;;
2305;SDS011;1161;51.922;8.896;2023-01-24T11:44:21;8.07;;;6.28;;
2305;SDS011;1161;51.922;8.896;2023-01-24T11:46:58;14.80;;;6.87;;
2305;SDS011;1161;51.922;8.896;2023-01-24T11:49:32;10.07;;;6.47;;
2305;SDS011;1161;51.922;8.896;2023-01-24T11:52:07;7.85;;;6.50;;
2305;SDS011;1161;51.922;8.896;2023-01-24T11:54:49;6.80;;;5.10;;
2305;SDS011;1161;51.922;8.896;2023-01-24T11:57:22;11.60;;;7.00;;
2305;SDS011;1161;51.922;8.896;2023-01-24T11:59:55;11.23;;;5.93;;
2305;SDS011;1161;51.922;8.896;2023-01-24T12:02:32;9.53;;;6.40;;
2305;SDS011;1161;51.922;8.896;2023-01-24T12:05:16;8.90;;;5.50;;
2305;SDS011;1161;51.922;8.896;2023-01-24T12:07:53;7.78;;;5.72;;
2305;SDS011;1161;51.922;8.896;2023-01-24T12:10:25;9.87;;;5.97;;
2305;SDS011;1161;51.922;8.896;2023-01-24T12:13:00;13.73;;;8.18;;
2305;SDS011;1161;51.922;8.896;2023-01-24T12:15:33;13.20;;;6.60;;
2305;SDS011;1161;51.922;8.896;2023-01-24T12:20:58;8.33;;;6.77;;
2305;SDS011;1161;51.922;8.896;2023-01-24T12:23:26;14.60;;;7.20;;
2305;SDS011;1161;51.922;8.896;2023-01-24T12:26:01;9.57;;;6.63;;
2305;SDS011;1161;51.922;8.896;2023-01-24T12:28:31;11.80;;;6.77;;
2305;SDS011;1161;51.922;8.896;2023-01-24T12:31:01;10.13;;;6.47;;
2305;SDS011;1161;51.922;8.896;2023-01-24T12:33:30;11.00;;;6.70;;
2305;SDS011;1161;51.922;8.896;2023-01-24T12:35:59;9.00;;;6.38;;
2305;SDS011;1161;51.922;8.896;2023-01-24T12:38:29;8.47;;;5.97;;
2305;SDS011;1161;51.922;8.896;2023-01-24T12:41:02;8.70;;;7.40;;
2305;SDS011;1161;51.922;8.896;2023-01-24T12:43:34;9.40;;;7.30;;
2305;SDS011;1161;51.922;8.896;2023-01-24T12:46:06;10.33;;;6.73;;
2305;SDS011;1161;51.922;8.896;2023-01-24T12:48:39;7.30;;;6.23;;
2305;SDS011;1161;51.922;8.896;2023-01-24T12:51:10;9.60;;;6.60;;
2305;SDS011;1161;51.922;8.896;2023-01-24T12:53:41;10.70;;;7.10;;
2305;SDS011;1161;51.922;8.896;2023-01-24T12:56:18;9.68;;;6.40;;
2305;SDS011;1161;51.922;8.896;2023-01-24T12:58:46;14.20;;;7.00;;
2305;SDS011;1161;51.922;8.896;2023-01-24T13:01:23;12.32;;;7.18;;
2305;SDS011;1161;51.922;8.896;2023-01-24T13:04:04;9.47;;;6.57;;
2305;SDS011;1161;51.922;8.896;2023-01-24T13:06:41;15.82;;;8.48;;
2305;SDS011;1161;51.922;8.896;2023-01-24T13:09:13;11.30;;;6.95;;
2305;SDS011;1161;51.922;8.896;2023-01-24T13:11:46;9.38;;;5.45;;
2305;SDS011;1161;51.922;8.896;2023-01-24T13:14:16;14.70;;;7.20;;
2305;SDS011;1161;51.922;8.896;2023-01-24T13:16:58;10.33;;;6.40;;
2305;SDS011;1161;51.922;8.896;2023-01-24T13:19:43;13.20;;;7.00;;
2305;SDS011;1161;51.922;8.896;2023-01-24T13:22:20;18.23;;;6.63;;
2305;SDS011;1161;51.922;8.896;2023-01-24T13:24:55;12.20;;;7.35;;
2305;SDS011;1161;51.922;8.896;2023-01-24T13:27:33;11.07;;;5.93;;
2305;SDS011;1161;51.922;8.896;2023-01-24T13:30:15;9.95;;;6.05;;
2305;SDS011;1161;51.922;8.896;2023-01-24T13:32:46;10.70;;;6.50;;
2305;SDS011;1161;51.922;8.896;2023-01-24T13:35:15;9.63;;;7.03;;
2305;SDS011;1161;51.922;8.896;2023-01-24T13:37:48;7.03;;;6.20;;
2305;SDS011;1161;51.922;8.896;2023-01-24T13:40:21;11.93;;;7.00;;
2305;SDS011;1161;51.922;8.896;2023-01-24T13:42:51;10.57;;;7.78;;
2305;SDS011;1161;51.922;8.896;2023-01-24T13:51:30;9.57;;;6.65;;
2305;SDS011;1161;51.922;8.896;2023-01-24T13:54:33;10.33;;;7.20;;
2305;SDS011;1161;51.922;8.896;2023-01-24T13:57:24;12.98;;;7.13;;
2305;SDS011;1161;51.922;8.896;2023-01-24T14:02:59;7.28;;;6.13;;
2305;SDS011;1161;51.922;8.896;2023-01-24T14:05:41;19.30;;;7.75;;
2305;SDS011;1161;51.922;8.896;2023-01-24T14:08:31;9.88;;;7.57;;
2305;SDS011;1161;51.922;8.896;2023-01-24T14:20:15;11.77;;;7.77;;
2305;SDS011;1161;51.922;8.896;2023-01-24T14:22:57;20.70;;;9.80;;
2305;SDS011;1161;51.922;8.896;2023-01-24T14:25:38;14.70;;;8.33;;
2305;SDS011;1161;51.922;8.896;2023-01-24T14:28:18;13.73;;;8.30;;
2305;SDS011;1161;51.922;8.896;2023-01-24T14:30:50;10.33;;;6.97;;
2305;SDS011;1161;51.922;8.896;2023-01-24T14:33:28;9.00;;;6.82;;
2305;SDS011;1161;51.922;8.896;2023-01-24T14:36:11;8.77;;;6.33;;
2305;SDS011;1161;51.922;8.896;2023-01-24T14:38:40;11.70;;;7.00;;
2305;SDS011;1161;51.922;8.896;2023-01-24T14:41:10;13.52;;;8.32;;
2305;SDS011;1161;51.922;8.896;2023-01-24T14:43:45;15.25;;;7.93;;
2305;SDS011;1161;51.922;8.896;2023-01-24T14:46:12;7.77;;;7.00;;
2305;SDS011;1161;51.922;8.896;2023-01-24T14:48:45;13.70;;;7.60;;
2305;SDS011;1161;51.922;8.896;2023-01-24T14:51:15;8.95;;;6.72;;
2305;SDS011;1161;51.922;8.896;2023-01-24T14:53:45;13.17;;;7.17;;
2305;SDS011;1161;51.922;8.896;2023-01-24T14:56:13;9.07;;;8.10;;
2305;SDS011;1161;51.922;8.896;2023-01-24T14:58:39;12.67;;;7.37;;
2305;SDS011;1161;51.922;8.896;2023-01-24T15:01:20;12.93;;;8.00;;
2305;SDS011;1161;51.922;8.896;2023-01-24T15:03:49;12.67;;;6.50;;
2305;SDS011;1161;51.922;8.896;2023-01-24T15:06:18;14.80;;;7.63;;
2305;SDS011;1161;51.922;8.896;2023-01-24T15:08:44;15.63;;;7.73;;
2305;SDS011;1161;51.922;8.896;2023-01-24T15:11:16;14.70;;;8.30;;
2305;SDS011;1161;51.922;8.896;2023-01-24T15:13:45;13.63;;;8.73;;
2305;SDS011;1161;51.922;8.896;2023-01-24T15:16:15;10.33;;;6.70;;
2305;SDS011;1161;51.922;8.896;2023-01-24T15:18:43;9.18;;;7.55;;
2305;SDS011;1161;51.922;8.896;2023-01-24T15:21:23;10.88;;;7.90;;
2305;SDS011;1161;51.922;8.896;2023-01-24T15:23:55;11.80;;;7.07;;
2305;SDS011;1161;51.922;8.896;2023-01-24T15:26:33;10.70;;;7.97;;
2305;SDS011;1161;51.922;8.896;2023-01-24T15:32:26;14.77;;;9.13;;
2305;SDS011;1161;51.922;8.896;2023-01-24T15:38:10;8.50;;;6.60;;
2305;SDS011;1161;51.922;8.896;2023-01-24T15:40:45;14.33;;;7.30;;
2305;SDS011;1161;51.922;8.896;2023-01-24T15:43:14;11.68;;;8.05;;
2305;SDS011;1161;51.922;8.896;2023-01-24T15:46:02;18.52;;;8.95;;
2305;SDS011;1161;51.922;8.896;2023-01-24T15:48:55;16.38;;;7.35;;
2305;SDS011;1161;51.922;8.896;2023-01-24T15:51:27;14.87;;;9.50;;
2305;SDS011;1161;51.922;8.896;2023-01-24T15:53:57;11.68;;;9.38;;
2305;SDS011;1161;51.922;8.896;2023-01-24T15:56:24;13.60;;;8.70;;
2305;SDS011;1161;51.922;8.896;2023-01-24T15:58:51;13.85;;;9.13;;